Terminal Aerodrome Forecast
Issued by NWS

Home | Current Version | Previous Version | Text Only | Print | Product List | Glossary On
Versions: 1 2 3 4 5 6 7 8 9 10 11 12 13 14 15 16 17 18 19 20 21 22 23 24 25 26 27 28
751
FTUS46 KOTX 061135
TAFMWH
TAF
KMWH 061135Z 0612/0712 01008KT P6SM FEW090 SCT200
     FM061700 02019KT P6SM SCT120
     FM070200 01010KT P6SM SKC=

USA.gov is the U.S. government's official web portal to all federal, state and local government web resources and services.